sensor_id;sensor_type;location;lat;lon;timestamp;P1;durP1;ratioP1;P2;durP2;ratioP2
23346;SDS011;36852;45.466;11.066;2022-11-13T00:00:49;2.80;;;1.10;;
23346;SDS011;36852;45.466;11.066;2022-11-13T00:03:35;1.80;;;1.10;;
23346;SDS011;36852;45.466;11.066;2022-11-13T00:12:14;4.78;;;1.40;;
23346;SDS011;36852;45.466;11.066;2022-11-13T00:15:01;2.60;;;1.40;;
23346;SDS011;36852;45.466;11.066;2022-11-13T00:17:50;1.60;;;1.22;;
23346;SDS011;36852;45.466;11.066;2022-11-13T00:20:37;1.77;;;1.00;;
23346;SDS011;36852;45.466;11.066;2022-11-13T00:23:23;3.15;;;0.90;;
23346;SDS011;36852;45.466;11.066;2022-11-13T00:26:10;2.98;;;1.10;;
23346;SDS011;36852;45.466;11.066;2022-11-13T00:29:01;1.57;;;0.85;;
23346;SDS011;36852;45.466;11.066;2022-11-13T00:31:48;1.22;;;0.98;;
23346;SDS011;36852;45.466;11.066;2022-11-13T00:34:34;3.50;;;1.00;;
23346;SDS011;36852;45.466;11.066;2022-11-13T00:37:24;2.42;;;1.05;;
23346;SDS011;36852;45.466;11.066;2022-11-13T00:40:11;2.17;;;1.02;;
23346;SDS011;36852;45.466;11.066;2022-11-13T00:42:58;2.12;;;0.82;;
23346;SDS011;36852;45.466;11.066;2022-11-13T00:45:45;2.08;;;0.90;;
23346;SDS011;36852;45.466;11.066;2022-11-13T00:48:31;1.95;;;0.93;;
23346;SDS011;36852;45.466;11.066;2022-11-13T00:51:18;3.60;;;1.20;;
23346;SDS011;36852;45.466;11.066;2022-11-13T00:54:04;3.77;;;1.15;;
23346;SDS011;36852;45.466;11.066;2022-11-13T00:56:50;3.25;;;1.75;;
23346;SDS011;36852;45.466;11.066;2022-11-13T00:59:36;2.08;;;1.20;;
23346;SDS011;36852;45.466;11.066;2022-11-13T01:02:23;1.60;;;1.00;;
23346;SDS011;36852;45.466;11.066;2022-11-13T01:05:10;2.17;;;0.95;;
23346;SDS011;36852;45.466;11.066;2022-11-13T01:07:56;1.98;;;1.22;;
23346;SDS011;36852;45.466;11.066;2022-11-13T01:10:44;4.60;;;1.10;;
23346;SDS011;36852;45.466;11.066;2022-11-13T01:13:34;2.15;;;1.30;;
23346;SDS011;36852;45.466;11.066;2022-11-13T01:16:24;1.98;;;1.20;;
23346;SDS011;36852;45.466;11.066;2022-11-13T01:19:10;1.87;;;1.25;;
23346;SDS011;36852;45.466;11.066;2022-11-13T01:21:58;1.60;;;1.15;;
23346;SDS011;36852;45.466;11.066;2022-11-13T01:24:45;1.92;;;1.15;;
23346;SDS011;36852;45.466;11.066;2022-11-13T01:27:34;2.35;;;1.30;;
23346;SDS011;36852;45.466;11.066;2022-11-13T01:30:22;2.83;;;1.60;;
23346;SDS011;36852;45.466;11.066;2022-11-13T01:33:09;4.75;;;2.98;;
23346;SDS011;36852;45.466;11.066;2022-11-13T01:35:59;4.65;;;1.70;;
23346;SDS011;36852;45.466;11.066;2022-11-13T01:38:50;4.70;;;1.85;;
23346;SDS011;36852;45.466;11.066;2022-11-13T01:41:37;2.17;;;1.60;;
23346;SDS011;36852;45.466;11.066;2022-11-13T01:44:23;2.22;;;1.37;;
23346;SDS011;36852;45.466;11.066;2022-11-13T01:47:10;3.40;;;1.35;;
23346;SDS011;36852;45.466;11.066;2022-11-13T01:49:57;2.22;;;1.40;;
23346;SDS011;36852;45.466;11.066;2022-11-13T01:52:46;1.90;;;1.50;;
23346;SDS011;36852;45.466;11.066;2022-11-13T01:55:32;2.58;;;1.32;;
23346;SDS011;36852;45.466;11.066;2022-11-13T01:58:19;2.40;;;1.22;;
23346;SDS011;36852;45.466;11.066;2022-11-13T02:01:07;3.10;;;0.98;;
23346;SDS011;36852;45.466;11.066;2022-11-13T02:03:54;3.30;;;1.27;;
23346;SDS011;36852;45.466;11.066;2022-11-13T02:06:59;1.72;;;1.20;;
23346;SDS011;36852;45.466;11.066;2022-11-13T02:09:49;2.15;;;0.90;;
23346;SDS011;36852;45.466;11.066;2022-11-13T02:12:38;1.98;;;0.93;;
23346;SDS011;36852;45.466;11.066;2022-11-13T02:15:26;1.37;;;0.95;;
23346;SDS011;36852;45.466;11.066;2022-11-13T02:18:34;2.87;;;1.00;;
23346;SDS011;36852;45.466;11.066;2022-11-13T02:24:31;2.87;;;1.17;;
23346;SDS011;36852;45.466;11.066;2022-11-13T02:27:26;1.02;;;0.82;;
23346;SDS011;36852;45.466;11.066;2022-11-13T02:30:33;2.72;;;1.27;;
23346;SDS011;36852;45.466;11.066;2022-11-13T02:36:14;2.35;;;1.02;;
23346;SDS011;36852;45.466;11.066;2022-11-13T02:39:04;2.85;;;1.27;;
23346;SDS011;36852;45.466;11.066;2022-11-13T02:41:54;1.62;;;1.10;;
23346;SDS011;36852;45.466;11.066;2022-11-13T02:44:40;1.62;;;0.78;;
23346;SDS011;36852;45.466;11.066;2022-11-13T02:47:27;1.87;;;0.70;;
23346;SDS011;36852;45.466;11.066;2022-11-13T02:50:14;0.93;;;0.80;;
23346;SDS011;36852;45.466;11.066;2022-11-13T02:53:01;1.15;;;0.90;;
23346;SDS011;36852;45.466;11.066;2022-11-13T02:55:48;1.67;;;0.95;;
23346;SDS011;36852;45.466;11.066;2022-11-13T02:58:35;1.55;;;1.00;;
23346;SDS011;36852;45.466;11.066;2022-11-13T03:01:23;1.32;;;0.90;;
23346;SDS011;36852;45.466;11.066;2022-11-13T03:04:09;1.00;;;0.80;;
23346;SDS011;36852;45.466;11.066;2022-11-13T03:06:55;0.95;;;0.80;;
23346;SDS011;36852;45.466;11.066;2022-11-13T03:09:42;2.90;;;1.50;;
23346;SDS011;36852;45.466;11.066;2022-11-13T03:12:28;1.80;;;1.40;;
23346;SDS011;36852;45.466;11.066;2022-11-13T03:15:14;1.75;;;1.50;;
23346;SDS011;36852;45.466;11.066;2022-11-13T03:18:05;3.52;;;1.80;;
23346;SDS011;36852;45.466;11.066;2022-11-13T03:20:49;2.40;;;1.85;;
23346;SDS011;36852;45.466;11.066;2022-11-13T03:23:38;2.87;;;1.75;;
23346;SDS011;36852;45.466;11.066;2022-11-13T03:26:25;3.33;;;2.00;;
23346;SDS011;36852;45.466;11.066;2022-11-13T03:29:15;3.70;;;2.10;;
23346;SDS011;36852;45.466;11.066;2022-11-13T03:32:02;2.95;;;2.17;;
23346;SDS011;36852;45.466;11.066;2022-11-13T03:34:49;5.22;;;2.25;;
23346;SDS011;36852;45.466;11.066;2022-11-13T03:37:35;4.00;;;2.37;;
23346;SDS011;36852;45.466;11.066;2022-11-13T03:40:22;3.75;;;2.40;;
23346;SDS011;36852;45.466;11.066;2022-11-13T03:46:04;2.75;;;1.82;;
23346;SDS011;36852;45.466;11.066;2022-11-13T03:48:51;2.77;;;2.02;;
23346;SDS011;36852;45.466;11.066;2022-11-13T03:51:37;3.45;;;2.25;;
23346;SDS011;36852;45.466;11.066;2022-11-13T03:54:24;2.77;;;2.37;;
23346;SDS011;36852;45.466;11.066;2022-11-13T03:57:10;4.92;;;2.12;;
23346;SDS011;36852;45.466;11.066;2022-11-13T03:59:56;4.08;;;2.42;;
23346;SDS011;36852;45.466;11.066;2022-11-13T04:02:42;2.58;;;1.85;;
23346;SDS011;36852;45.466;11.066;2022-11-13T04:05:29;3.42;;;1.98;;
23346;SDS011;36852;45.466;11.066;2022-11-13T04:08:15;3.20;;;1.90;;
23346;SDS011;36852;45.466;11.066;2022-11-13T04:11:06;4.78;;;2.45;;
23346;SDS011;36852;45.466;11.066;2022-11-13T04:13:54;3.92;;;2.20;;
23346;SDS011;36852;45.466;11.066;2022-11-13T04:16:40;2.80;;;2.33;;
23346;SDS011;36852;45.466;11.066;2022-11-13T04:19:27;3.72;;;2.70;;
23346;SDS011;36852;45.466;11.066;2022-11-13T04:22:14;2.60;;;2.02;;
23346;SDS011;36852;45.466;11.066;2022-11-13T04:25:00;2.95;;;2.10;;
23346;SDS011;36852;45.466;11.066;2022-11-13T04:27:50;5.25;;;2.65;;
23346;SDS011;36852;45.466;11.066;2022-11-13T04:30:37;3.10;;;2.15;;
23346;SDS011;36852;45.466;11.066;2022-11-13T04:33:23;3.22;;;2.20;;
23346;SDS011;36852;45.466;11.066;2022-11-13T04:36:09;3.15;;;2.25;;
23346;SDS011;36852;45.466;11.066;2022-11-13T04:38:55;2.98;;;2.12;;
23346;SDS011;36852;45.466;11.066;2022-11-13T04:41:42;4.30;;;2.55;;
23346;SDS011;36852;45.466;11.066;2022-11-13T04:44:46;3.10;;;2.25;;
23346;SDS011;36852;45.466;11.066;2022-11-13T04:47:32;4.10;;;2.75;;
23346;SDS011;36852;45.466;11.066;2022-11-13T04:50:18;3.75;;;2.35;;
23346;SDS011;36852;45.466;11.066;2022-11-13T04:53:06;3.17;;;2.12;;
23346;SDS011;36852;45.466;11.066;2022-11-13T04:55:52;3.00;;;2.30;;
23346;SDS011;36852;45.466;11.066;2022-11-13T04:58:38;2.98;;;2.40;;
23346;SDS011;36852;45.466;11.066;2022-11-13T05:01:25;3.75;;;2.47;;
23346;SDS011;36852;45.466;11.066;2022-11-13T05:04:13;3.85;;;2.52;;
23346;SDS011;36852;45.466;11.066;2022-11-13T05:07:00;4.55;;;2.47;;
23346;SDS011;36852;45.466;11.066;2022-11-13T05:09:46;3.92;;;2.30;;
23346;SDS011;36852;45.466;11.066;2022-11-13T05:12:34;3.33;;;2.12;;
23346;SDS011;36852;45.466;11.066;2022-11-13T05:15:20;2.95;;;2.30;;
23346;SDS011;36852;45.466;11.066;2022-11-13T05:18:07;3.33;;;2.30;;
23346;SDS011;36852;45.466;11.066;2022-11-13T05:20:54;3.75;;;2.60;;
23346;SDS011;36852;45.466;11.066;2022-11-13T05:23:40;4.95;;;2.72;;
23346;SDS011;36852;45.466;11.066;2022-11-13T05:26:27;2.90;;;2.15;;
23346;SDS011;36852;45.466;11.066;2022-11-13T05:29:13;3.22;;;2.17;;
23346;SDS011;36852;45.466;11.066;2022-11-13T05:31:59;5.12;;;2.27;;
23346;SDS011;36852;45.466;11.066;2022-11-13T05:34:45;4.05;;;2.20;;
23346;SDS011;36852;45.466;11.066;2022-11-13T05:37:32;4.70;;;2.17;;
23346;SDS011;36852;45.466;11.066;2022-11-13T05:40:18;4.58;;;2.58;;
23346;SDS011;36852;45.466;11.066;2022-11-13T05:43:05;4.37;;;2.50;;
23346;SDS011;36852;45.466;11.066;2022-11-13T05:45:57;5.80;;;2.72;;
23346;SDS011;36852;45.466;11.066;2022-11-13T05:48:53;3.27;;;2.40;;
23346;SDS011;36852;45.466;11.066;2022-11-13T05:51:40;4.15;;;2.42;;
23346;SDS011;36852;45.466;11.066;2022-11-13T05:54:30;5.40;;;2.70;;
23346;SDS011;36852;45.466;11.066;2022-11-13T05:57:18;3.95;;;2.72;;
23346;SDS011;36852;45.466;11.066;2022-11-13T06:00:04;5.53;;;3.25;;
23346;SDS011;36852;45.466;11.066;2022-11-13T06:02:55;5.22;;;3.00;;
23346;SDS011;36852;45.466;11.066;2022-11-13T06:05:42;4.33;;;2.60;;
23346;SDS011;36852;45.466;11.066;2022-11-13T06:08:28;6.72;;;4.40;;
23346;SDS011;36852;45.466;11.066;2022-11-13T06:11:16;5.30;;;3.40;;
23346;SDS011;36852;45.466;11.066;2022-11-13T06:14:05;4.72;;;2.77;;
23346;SDS011;36852;45.466;11.066;2022-11-13T06:16:51;5.17;;;3.12;;
23346;SDS011;36852;45.466;11.066;2022-11-13T06:19:37;3.77;;;3.00;;
23346;SDS011;36852;45.466;11.066;2022-11-13T06:22:23;5.15;;;2.85;;
23346;SDS011;36852;45.466;11.066;2022-11-13T06:25:09;5.12;;;2.87;;
23346;SDS011;36852;45.466;11.066;2022-11-13T06:27:58;3.37;;;2.75;;
23346;SDS011;36852;45.466;11.066;2022-11-13T06:30:45;5.08;;;2.62;;
23346;SDS011;36852;45.466;11.066;2022-11-13T06:33:32;4.20;;;2.75;;
23346;SDS011;36852;45.466;11.066;2022-11-13T06:36:20;4.80;;;2.70;;
23346;SDS011;36852;45.466;11.066;2022-11-13T06:39:08;4.22;;;2.70;;
23346;SDS011;36852;45.466;11.066;2022-11-13T06:41:54;5.70;;;2.95;;
23346;SDS011;36852;45.466;11.066;2022-11-13T06:44:41;8.55;;;2.90;;
23346;SDS011;36852;45.466;11.066;2022-11-13T06:47:30;5.62;;;2.62;;
23346;SDS011;36852;45.466;11.066;2022-11-13T06:50:17;4.37;;;2.70;;
23346;SDS011;36852;45.466;11.066;2022-11-13T06:53:03;4.37;;;2.98;;
23346;SDS011;36852;45.466;11.066;2022-11-13T06:58:55;4.10;;;2.90;;
23346;SDS011;36852;45.466;11.066;2022-11-13T07:01:42;3.58;;;2.60;;
23346;SDS011;36852;45.466;11.066;2022-11-13T07:04:30;4.20;;;2.60;;
23346;SDS011;36852;45.466;11.066;2022-11-13T07:07:16;3.98;;;2.77;;
23346;SDS011;36852;45.466;11.066;2022-11-13T07:10:02;5.17;;;2.37;;
23346;SDS011;36852;45.466;11.066;2022-11-13T07:12:49;4.10;;;2.52;;
23346;SDS011;36852;45.466;11.066;2022-11-13T07:15:38;4.55;;;3.30;;
23346;SDS011;36852;45.466;11.066;2022-11-13T07:18:28;3.87;;;2.67;;
23346;SDS011;36852;45.466;11.066;2022-11-13T07:21:15;4.10;;;2.67;;
23346;SDS011;36852;45.466;11.066;2022-11-13T07:24:04;4.75;;;2.47;;
23346;SDS011;36852;45.466;11.066;2022-11-13T07:26:53;4.85;;;2.52;;
23346;SDS011;36852;45.466;11.066;2022-11-13T07:29:40;3.77;;;2.42;;
23346;SDS011;36852;45.466;11.066;2022-11-13T07:32:27;4.03;;;2.80;;
23346;SDS011;36852;45.466;11.066;2022-11-13T07:35:14;5.35;;;2.70;;
23346;SDS011;36852;45.466;11.066;2022-11-13T07:38:00;5.05;;;2.72;;
23346;SDS011;36852;45.466;11.066;2022-11-13T07:40:47;3.62;;;2.45;;
23346;SDS011;36852;45.466;11.066;2022-11-13T07:43:34;4.17;;;2.60;;
23346;SDS011;36852;45.466;11.066;2022-11-13T07:46:21;4.12;;;2.55;;
23346;SDS011;36852;45.466;11.066;2022-11-13T07:49:07;4.58;;;2.52;;
23346;SDS011;36852;45.466;11.066;2022-11-13T07:51:53;5.00;;;3.22;;
23346;SDS011;36852;45.466;11.066;2022-11-13T07:54:39;4.83;;;2.95;;
23346;SDS011;36852;45.466;11.066;2022-11-13T07:57:26;5.08;;;3.05;;
23346;SDS011;36852;45.466;11.066;2022-11-13T08:00:12;3.65;;;2.47;;
23346;SDS011;36852;45.466;11.066;2022-11-13T08:03:03;3.95;;;2.80;;
23346;SDS011;36852;45.466;11.066;2022-11-13T08:05:58;4.12;;;2.72;;
23346;SDS011;36852;45.466;11.066;2022-11-13T08:08:50;6.42;;;2.83;;
23346;SDS011;36852;45.466;11.066;2022-11-13T08:11:41;6.28;;;2.47;;
23346;SDS011;36852;45.466;11.066;2022-11-13T08:14:39;7.53;;;3.05;;
23346;SDS011;36852;45.466;11.066;2022-11-13T08:17:23;4.70;;;2.63;;
23346;SDS011;36852;45.466;11.066;2022-11-13T08:20:10;3.77;;;2.87;;
23346;SDS011;36852;45.466;11.066;2022-11-13T08:22:57;3.02;;;2.27;;
23346;SDS011;36852;45.466;11.066;2022-11-13T08:25:44;5.30;;;2.75;;
23346;SDS011;36852;45.466;11.066;2022-11-13T08:28:30;5.65;;;3.02;;
23346;SDS011;36852;45.466;11.066;2022-11-13T08:31:17;6.28;;;2.87;;
23346;SDS011;36852;45.466;11.066;2022-11-13T08:34:03;7.30;;;2.95;;
23346;SDS011;36852;45.466;11.066;2022-11-13T08:36:49;3.25;;;2.58;;
23346;SDS011;36852;45.466;11.066;2022-11-13T08:39:35;5.45;;;2.87;;
23346;SDS011;36852;45.466;11.066;2022-11-13T08:42:21;6.78;;;3.02;;
23346;SDS011;36852;45.466;11.066;2022-11-13T08:45:08;4.12;;;2.80;;
23346;SDS011;36852;45.466;11.066;2022-11-13T08:47:59;3.65;;;2.62;;
23346;SDS011;36852;45.466;11.066;2022-11-13T08:50:46;3.80;;;2.70;;
23346;SDS011;36852;45.466;11.066;2022-11-13T08:53:40;6.67;;;3.00;;
23346;SDS011;36852;45.466;11.066;2022-11-13T08:59:31;4.97;;;3.17;;
23346;SDS011;36852;45.466;11.066;2022-11-13T09:02:20;4.45;;;2.60;;
23346;SDS011;36852;45.466;11.066;2022-11-13T09:05:06;4.85;;;2.50;;
23346;SDS011;36852;45.466;11.066;2022-11-13T09:07:56;5.28;;;2.90;;
23346;SDS011;36852;45.466;11.066;2022-11-13T09:10:45;8.98;;;2.92;;
23346;SDS011;36852;45.466;11.066;2022-11-13T09:13:31;5.92;;;3.02;;
23346;SDS011;36852;45.466;11.066;2022-11-13T09:16:23;5.03;;;2.67;;
23346;SDS011;36852;45.466;11.066;2022-11-13T09:19:09;5.03;;;3.10;;
23346;SDS011;36852;45.466;11.066;2022-11-13T09:21:55;6.78;;;2.87;;
23346;SDS011;36852;45.466;11.066;2022-11-13T09:24:41;3.60;;;3.25;;
23346;SDS011;36852;45.466;11.066;2022-11-13T09:27:28;7.67;;;4.92;;
23346;SDS011;36852;45.466;11.066;2022-11-13T09:30:15;7.75;;;4.80;;
23346;SDS011;36852;45.466;11.066;2022-11-13T09:33:01;4.65;;;4.15;;
23346;SDS011;36852;45.466;11.066;2022-11-13T09:35:47;4.42;;;3.65;;
23346;SDS011;36852;45.466;11.066;2022-11-13T09:38:34;5.15;;;3.42;;
23346;SDS011;36852;45.466;11.066;2022-11-13T09:41:24;5.92;;;4.40;;
23346;SDS011;36852;45.466;11.066;2022-11-13T09:44:15;6.90;;;4.17;;
23346;SDS011;36852;45.466;11.066;2022-11-13T09:53:02;4.97;;;4.03;;
23346;SDS011;36852;45.466;11.066;2022-11-13T09:55:55;6.65;;;3.70;;
23346;SDS011;36852;45.466;11.066;2022-11-13T10:01:39;4.45;;;3.80;;
23346;SDS011;36852;45.466;11.066;2022-11-13T10:08:15;6.35;;;3.80;;
23346;SDS011;36852;45.466;11.066;2022-11-13T10:11:26;5.30;;;3.70;;
23346;SDS011;36852;45.466;11.066;2022-11-13T10:14:31;6.62;;;3.47;;
23346;SDS011;36852;45.466;11.066;2022-11-13T10:20:31;5.08;;;4.20;;
23346;SDS011;36852;45.466;11.066;2022-11-13T10:23:21;5.60;;;3.92;;
23346;SDS011;36852;45.466;11.066;2022-11-13T10:26:17;5.85;;;3.95;;
23346;SDS011;36852;45.466;11.066;2022-11-13T10:29:14;10.38;;;4.00;;
23346;SDS011;36852;45.466;11.066;2022-11-13T10:38:06;6.65;;;4.37;;
23346;SDS011;36852;45.466;11.066;2022-11-13T10:41:08;8.73;;;6.67;;
23346;SDS011;36852;45.466;11.066;2022-11-13T10:44:06;9.23;;;4.78;;
23346;SDS011;36852;45.466;11.066;2022-11-13T10:47:14;4.92;;;4.17;;
23346;SDS011;36852;45.466;11.066;2022-11-13T10:50:10;5.90;;;4.00;;
23346;SDS011;36852;45.466;11.066;2022-11-13T10:52:59;6.15;;;4.42;;
23346;SDS011;36852;45.466;11.066;2022-11-13T10:55:45;5.30;;;3.65;;
23346;SDS011;36852;45.466;11.066;2022-11-13T10:58:35;6.37;;;4.95;;
23346;SDS011;36852;45.466;11.066;2022-11-13T11:01:24;10.23;;;5.40;;
23346;SDS011;36852;45.466;11.066;2022-11-13T11:04:21;5.67;;;4.72;;
23346;SDS011;36852;45.466;11.066;2022-11-13T11:07:17;5.67;;;5.08;;
23346;SDS011;36852;45.466;11.066;2022-11-13T11:10:18;8.10;;;4.95;;
23346;SDS011;36852;45.466;11.066;2022-11-13T11:13:10;6.58;;;4.85;;
23346;SDS011;36852;45.466;11.066;2022-11-13T11:16:00;7.12;;;4.53;;
23346;SDS011;36852;45.466;11.066;2022-11-13T11:18:54;6.90;;;4.55;;
23346;SDS011;36852;45.466;11.066;2022-11-13T11:21:41;4.70;;;4.15;;
23346;SDS011;36852;45.466;11.066;2022-11-13T11:24:31;9.15;;;5.20;;
23346;SDS011;36852;45.466;11.066;2022-11-13T11:27:32;6.03;;;4.37;;
23346;SDS011;36852;45.466;11.066;2022-11-13T11:30:22;6.60;;;4.30;;
23346;SDS011;36852;45.466;11.066;2022-11-13T11:33:31;7.45;;;4.78;;
23346;SDS011;36852;45.466;11.066;2022-11-13T11:36:31;6.80;;;4.75;;
23346;SDS011;36852;45.466;11.066;2022-11-13T11:39:27;6.15;;;5.10;;
23346;SDS011;36852;45.466;11.066;2022-11-13T11:45:25;8.63;;;5.70;;
23346;SDS011;36852;45.466;11.066;2022-11-13T11:48:15;6.87;;;5.42;;
23346;SDS011;36852;45.466;11.066;2022-11-13T12:00:13;8.60;;;7.28;;
23346;SDS011;36852;45.466;11.066;2022-11-13T12:03:18;10.95;;;6.92;;
23346;SDS011;36852;45.466;11.066;2022-11-13T12:21:22;9.65;;;8.13;;
23346;SDS011;36852;45.466;11.066;2022-11-13T12:30:36;7.53;;;6.50;;
23346;SDS011;36852;45.466;11.066;2022-11-13T12:33:34;7.95;;;6.00;;
23346;SDS011;36852;45.466;11.066;2022-11-13T12:36:25;8.95;;;6.80;;
23346;SDS011;36852;45.466;11.066;2022-11-13T12:42:49;7.05;;;5.83;;
23346;SDS011;36852;45.466;11.066;2022-11-13T12:51:04;8.65;;;6.95;;
23346;SDS011;36852;45.466;11.066;2022-11-13T12:53:53;10.03;;;7.53;;
23346;SDS011;36852;45.466;11.066;2022-11-13T12:56:40;8.83;;;7.55;;
23346;SDS011;36852;45.466;11.066;2022-11-13T12:59:31;9.08;;;7.67;;
23346;SDS011;36852;45.466;11.066;2022-11-13T13:02:30;8.53;;;6.62;;
23346;SDS011;36852;45.466;11.066;2022-11-13T13:11:15;9.33;;;6.50;;
23346;SDS011;36852;45.466;11.066;2022-11-13T13:17:18;8.05;;;6.08;;
23346;SDS011;36852;45.466;11.066;2022-11-13T13:20:29;8.28;;;6.42;;
23346;SDS011;36852;45.466;11.066;2022-11-13T13:23:05;7.53;;;6.50;;
23346;SDS011;36852;45.466;11.066;2022-11-13T13:29:01;8.30;;;7.40;;
23346;SDS011;36852;45.466;11.066;2022-11-13T13:38:06;8.00;;;6.85;;
23346;SDS011;36852;45.466;11.066;2022-11-13T13:47:10;8.05;;;6.58;;
23346;SDS011;36852;45.466;11.066;2022-11-13T13:49:58;10.82;;;7.47;;
23346;SDS011;36852;45.466;11.066;2022-11-13T13:52:45;8.70;;;6.78;;
23346;SDS011;36852;45.466;11.066;2022-11-13T13:55:35;9.00;;;7.08;;
23346;SDS011;36852;45.466;11.066;2022-11-13T13:58:34;9.75;;;7.60;;
23346;SDS011;36852;45.466;11.066;2022-11-13T14:01:25;8.23;;;6.92;;
23346;SDS011;36852;45.466;11.066;2022-11-13T14:04:16;8.35;;;6.28;;
23346;SDS011;36852;45.466;11.066;2022-11-13T14:12:59;9.33;;;6.97;;
23346;SDS011;36852;45.466;11.066;2022-11-13T14:15:45;7.35;;;6.15;;
23346;SDS011;36852;45.466;11.066;2022-11-13T14:18:32;9.15;;;6.72;;
23346;SDS011;36852;45.466;11.066;2022-11-13T14:21:19;10.68;;;6.97;;
23346;SDS011;36852;45.466;11.066;2022-11-13T14:24:15;10.25;;;6.37;;
23346;SDS011;36852;45.466;11.066;2022-11-13T14:27:25;8.20;;;5.97;;
23346;SDS011;36852;45.466;11.066;2022-11-13T14:30:27;17.07;;;11.43;;
23346;SDS011;36852;45.466;11.066;2022-11-13T14:33:14;31.95;;;19.90;;
23346;SDS011;36852;45.466;11.066;2022-11-13T14:36:03;10.50;;;8.60;;
23346;SDS011;36852;45.466;11.066;2022-11-13T14:38:52;9.05;;;6.35;;
23346;SDS011;36852;45.466;11.066;2022-11-13T14:41:40;7.90;;;6.20;;
23346;SDS011;36852;45.466;11.066;2022-11-13T14:44:34;8.35;;;6.55;;
23346;SDS011;36852;45.466;11.066;2022-11-13T14:47:27;8.80;;;7.00;;
23346;SDS011;36852;45.466;11.066;2022-11-13T14:50:20;10.28;;;8.65;;
23346;SDS011;36852;45.466;11.066;2022-11-13T14:53:09;10.78;;;8.58;;
23346;SDS011;36852;45.466;11.066;2022-11-13T14:55:56;11.03;;;7.95;;
23346;SDS011;36852;45.466;11.066;2022-11-13T14:58:46;11.22;;;9.38;;
23346;SDS011;36852;45.466;11.066;2022-11-13T15:01:33;14.35;;;8.68;;
23346;SDS011;36852;45.466;11.066;2022-11-13T15:04:19;12.73;;;9.25;;
23346;SDS011;36852;45.466;11.066;2022-11-13T15:10:17;12.30;;;9.68;;
23346;SDS011;36852;45.466;11.066;2022-11-13T15:16:16;12.73;;;9.15;;
23346;SDS011;36852;45.466;11.066;2022-11-13T15:22:20;17.23;;;11.33;;
23346;SDS011;36852;45.466;11.066;2022-11-13T15:25:19;15.35;;;10.80;;
23346;SDS011;36852;45.466;11.066;2022-11-13T15:28:00;14.15;;;10.70;;
23346;SDS011;36852;45.466;11.066;2022-11-13T15:30:47;12.98;;;10.95;;
23346;SDS011;36852;45.466;11.066;2022-11-13T15:33:37;13.38;;;10.85;;
23346;SDS011;36852;45.466;11.066;2022-11-13T15:36:24;15.72;;;12.07;;
23346;SDS011;36852;45.466;11.066;2022-11-13T15:39:11;14.38;;;11.88;;
23346;SDS011;36852;45.466;11.066;2022-11-13T15:41:59;15.32;;;11.80;;
23346;SDS011;36852;45.466;11.066;2022-11-13T15:44:46;19.67;;;12.33;;
23346;SDS011;36852;45.466;11.066;2022-11-13T15:47:35;18.90;;;13.05;;
23346;SDS011;36852;45.466;11.066;2022-11-13T15:50:22;14.05;;;12.55;;
23346;SDS011;36852;45.466;11.066;2022-11-13T15:53:09;18.80;;;11.83;;
23346;SDS011;36852;45.466;11.066;2022-11-13T15:55:58;17.70;;;12.43;;
23346;SDS011;36852;45.466;11.066;2022-11-13T15:58:51;17.55;;;12.85;;
23346;SDS011;36852;45.466;11.066;2022-11-13T16:01:40;16.02;;;13.13;;
23346;SDS011;36852;45.466;11.066;2022-11-13T16:04:31;49.67;;;28.35;;
23346;SDS011;36852;45.466;11.066;2022-11-13T16:07:23;34.13;;;20.95;;
23346;SDS011;36852;45.466;11.066;2022-11-13T16:10:10;29.10;;;15.60;;
23346;SDS011;36852;45.466;11.066;2022-11-13T16:12:57;22.27;;;13.03;;
23346;SDS011;36852;45.466;11.066;2022-11-13T16:15:43;18.32;;;11.48;;
23346;SDS011;36852;45.466;11.066;2022-11-13T16:18:31;15.48;;;9.78;;
23346;SDS011;36852;45.466;11.066;2022-11-13T16:21:18;22.42;;;10.60;;
23346;SDS011;36852;45.466;11.066;2022-11-13T16:24:05;19.95;;;10.78;;
23346;SDS011;36852;45.466;11.066;2022-11-13T16:26:55;18.37;;;9.45;;
23346;SDS011;36852;45.466;11.066;2022-11-13T16:29:42;13.25;;;9.33;;
23346;SDS011;36852;45.466;11.066;2022-11-13T16:32:28;13.08;;;9.20;;
23346;SDS011;36852;45.466;11.066;2022-11-13T16:35:15;13.03;;;9.03;;
23346;SDS011;36852;45.466;11.066;2022-11-13T16:38:13;12.85;;;8.85;;
23346;SDS011;36852;45.466;11.066;2022-11-13T16:41:09;11.90;;;8.68;;
23346;SDS011;36852;45.466;11.066;2022-11-13T16:44:21;14.73;;;9.00;;
23346;SDS011;36852;45.466;11.066;2022-11-13T16:50:27;13.13;;;8.13;;
23346;SDS011;36852;45.466;11.066;2022-11-13T16:53:09;10.30;;;8.00;;
23346;SDS011;36852;45.466;11.066;2022-11-13T16:55:55;12.63;;;8.33;;
23346;SDS011;36852;45.466;11.066;2022-11-13T16:58:42;13.78;;;7.58;;
23346;SDS011;36852;45.466;11.066;2022-11-13T17:01:28;11.95;;;7.78;;
23346;SDS011;36852;45.466;11.066;2022-11-13T17:04:17;11.78;;;7.62;;
23346;SDS011;36852;45.466;11.066;2022-11-13T17:07:04;13.25;;;8.33;;
23346;SDS011;36852;45.466;11.066;2022-11-13T17:09:50;13.35;;;8.60;;
23346;SDS011;36852;45.466;11.066;2022-11-13T17:12:38;11.70;;;8.30;;
23346;SDS011;36852;45.466;11.066;2022-11-13T17:15:25;16.60;;;10.10;;
23346;SDS011;36852;45.466;11.066;2022-11-13T17:18:11;11.75;;;9.13;;
23346;SDS011;36852;45.466;11.066;2022-11-13T17:20:57;24.92;;;9.83;;
23346;SDS011;36852;45.466;11.066;2022-11-13T17:23:44;14.30;;;9.30;;
23346;SDS011;36852;45.466;11.066;2022-11-13T17:26:31;13.32;;;8.65;;
23346;SDS011;36852;45.466;11.066;2022-11-13T17:29:16;14.50;;;8.43;;
23346;SDS011;36852;45.466;11.066;2022-11-13T17:32:03;20.17;;;9.20;;
23346;SDS011;36852;45.466;11.066;2022-11-13T17:34:50;13.25;;;8.90;;
23346;SDS011;36852;45.466;11.066;2022-11-13T17:37:35;10.13;;;8.78;;
23346;SDS011;36852;45.466;11.066;2022-11-13T17:40:22;15.03;;;10.08;;
23346;SDS011;36852;45.466;11.066;2022-11-13T17:43:10;14.60;;;8.98;;
23346;SDS011;36852;45.466;11.066;2022-11-13T17:45:56;14.68;;;10.05;;
23346;SDS011;36852;45.466;11.066;2022-11-13T17:48:43;19.70;;;11.15;;
23346;SDS011;36852;45.466;11.066;2022-11-13T17:51:38;15.98;;;10.45;;
23346;SDS011;36852;45.466;11.066;2022-11-13T17:54:41;14.05;;;10.32;;
23346;SDS011;36852;45.466;11.066;2022-11-13T17:57:27;15.40;;;11.28;;
23346;SDS011;36852;45.466;11.066;2022-11-13T18:00:16;19.52;;;13.32;;
23346;SDS011;36852;45.466;11.066;2022-11-13T18:03:03;19.27;;;11.97;;
23346;SDS011;36852;45.466;11.066;2022-11-13T18:05:49;17.73;;;11.75;;
23346;SDS011;36852;45.466;11.066;2022-11-13T18:08:40;20.65;;;11.95;;
23346;SDS011;36852;45.466;11.066;2022-11-13T18:11:27;14.95;;;11.35;;
23346;SDS011;36852;45.466;11.066;2022-11-13T18:14:14;14.75;;;10.18;;
23346;SDS011;36852;45.466;11.066;2022-11-13T18:17:01;14.85;;;9.90;;
23346;SDS011;36852;45.466;11.066;2022-11-13T18:19:48;12.07;;;9.70;;
23346;SDS011;36852;45.466;11.066;2022-11-13T18:22:35;14.40;;;9.30;;
23346;SDS011;36852;45.466;11.066;2022-11-13T18:25:21;13.32;;;9.08;;
23346;SDS011;36852;45.466;11.066;2022-11-13T18:28:07;11.78;;;8.88;;
23346;SDS011;36852;45.466;11.066;2022-11-13T18:30:54;13.15;;;8.80;;
23346;SDS011;36852;45.466;11.066;2022-11-13T18:33:41;14.25;;;9.33;;
23346;SDS011;36852;45.466;11.066;2022-11-13T18:36:27;12.63;;;9.18;;
23346;SDS011;36852;45.466;11.066;2022-11-13T18:39:15;13.25;;;9.80;;
23346;SDS011;36852;45.466;11.066;2022-11-13T18:42:04;14.55;;;9.35;;
23346;SDS011;36852;45.466;11.066;2022-11-13T18:44:53;11.08;;;8.85;;
23346;SDS011;36852;45.466;11.066;2022-11-13T18:47:40;14.30;;;9.35;;